Latest Weather Observations for Gannett Cay

IDQ60801

Issued at 2:05 pm EST Wednesday 24 September 2014 (issued every 30 minutes, with the page automatically refreshed every 10 minutes)

About weather observations | Map of weather stations | Latest weather observations for QLD | Other Formats
Station Details ID: 200831 Name: GANNET CAY Lat: -21.98 Lon: 152.47 Height: 2.3 m
Data from the previous 72 hours. | See also: Recent months for locations in Queensland
Date/Time
EST
Temp
°C
App
Temp
°C
Dew
Point
Rel
Hum
%
Delta-T
°C
Wind Press
QNH
hPa
Press
MSL
hPa
Rain
since 9 am
mm
Dir
 
Spd
km/h
Gust
km/h
Spd
kts
Gust
kts
24/02:00pm 22.7 - - - - E 30 33 16 18 1018.4 - -
24/01:30pm 22.3 - - - - E 30 33 16 18 1018.7 - -
24/01:26pm 22.4 - - - - E 30 - 16 - - 1018.8 -
24/01:00pm 22.5 - - - - E 30 35 16 19 1019.0 - -
24/12:30pm 22.6 - - - - E 30 33 16 18 1019.3 - -
24/12:26pm 22.6 - - - - E 30 - 16 - - 1019.5 -
24/12:00pm 22.3 - - - - E 30 33 16 18 1019.9 - -
24/11:30am 22.5 - - - - E 30 35 16 19 1020.4 - -
24/11:26am 22.4 - - - - E 30 - 16 - - 1020.5 -
24/11:00am 22.4 - - - - E 32 35 17 19 1020.7 - -
24/10:30am 22.5 - - - - E 32 35 17 19 1021.2 - -
24/10:26am 22.5 - - - - E 32 - 17 - - 1021.4 -
24/10:00am 22.3 - - - - E 32 37 17 20 1021.4 - -
24/09:30am 21.9 - - - - E 33 37 18 20 1021.6 - -
24/09:26am 21.9 - - - - E 33 - 18 - - 1021.7 -
24/09:00am 21.8 - - - - E 33 37 18 20 1021.7 - -
24/08:30am 21.9 - - - - E 37 43 20 23 1021.6 - -
24/08:26am 21.7 - - - - E 35 - 19 - - 1021.7 -
24/08:00am 21.6 - - - - E 33 39 18 21 1021.8 - -
24/07:30am 21.6 - - - - E 32 39 17 21 1021.5 - -
24/07:26am 21.8 - - - - E 33 - 18 - - 1021.6 -
24/07:00am 21.5 - - - - E 33 39 18 21 1021.3 - -
24/06:30am 22.2 - - - - E 33 37 18 20 1020.8 - -
24/06:26am 21.9 - - - - E 33 - 18 - - 1020.8 -
24/06:00am 21.9 - - - - E 33 37 18 20 1020.3 - -
24/05:30am 21.9 - - - - E 33 37 18 20 1020.1 - -
24/05:26am 21.8 - - - - E 33 - 18 - - 1020.2 -
24/05:00am 21.9 - - - - E 35 39 19 21 1020.0 - -
24/04:30am 21.8 - - - - E 33 39 18 21 1020.0 - -
24/04:26am 22.1 - - - - E 33 - 18 - - 1020.1 -
24/04:00am 21.9 - - - - E 33 39 18 21 1019.8 - -
24/03:30am 21.9 - - - - E 35 43 19 23 1019.7 - -
24/03:26am 21.8 - - - - E 37 - 20 - - 1019.8 -
24/03:00am 21.5 - - - - E 30 33 16 18 1019.7 - -
24/02:30am 20.6 - - - - E 24 30 13 16 1019.9 - -
24/02:26am 20.3 - - - - E 22 - 12 - - 1020.1 -
24/02:00am 20.0 - - - - ENE 33 41 18 22 1020.2 - -
24/01:30am 21.5 - - - - E 33 39 18 21 1020.2 - -
24/01:26am 21.4 - - - - E 35 - 19 - - 1020.3 -
24/01:00am 21.5 - - - - E 33 39 18 21 1020.5 - -
24/12:30am 21.5 - - - - E 37 43 20 23 1020.6 - -
24/12:26am 21.5 - - - - E 37 - 20 - - 1020.7 -
24/12:00am 21.7 - - - - E 39 43 21 23 1020.9 - -
 
Date/Time
EST
Temp
°C
App
Temp
°C
Dew
Point
Rel
Hum
%
Delta-T
°C
Wind Press
QNH
hPa
Press
MSL
hPa
Rain
since 9 am
mm
Dir
 
Spd
km/h
Gust
km/h
Spd
kts
Gust
kts
23/11:30pm 20.8 - - - - E 39 46 21 25 1021.2 - -
23/11:26pm 20.5 - - - - E 41 - 22 - - 1021.4 -
23/11:00pm 21.4 - - - - E 39 46 21 25 1021.4 - -
23/10:30pm 22.2 - - - - E 37 43 20 23 1021.5 - -
23/10:26pm 22.1 - - - - E 35 - 19 - - 1021.6 -
23/10:00pm 22.1 - - - - E 41 46 22 25 1021.6 - -
23/09:30pm 22.3 - - - - E 43 46 23 25 1021.6 - -
23/09:26pm 22.2 - - - - E 41 - 22 - - 1021.7 -
23/09:00pm 22.1 - - - - E 37 46 20 25 1021.6 - -
23/08:30pm 21.8 - - - - E 43 48 23 26 1021.6 - -
23/08:26pm 21.9 - - - - E 44 - 24 - - 1021.6 -
23/08:00pm 22.0 - - - - E 41 46 22 25 1021.3 - -
23/07:30pm 22.2 - - - - E 43 50 23 27 1021.1 - -
23/07:26pm 22.3 - - - - E 43 - 23 - - 1021.2 -
23/07:00pm 22.2 - - - - E 41 48 22 26 1021.0 - -
23/06:30pm 22.0 - - - - E 41 50 22 27 1020.8 - -
23/06:26pm 22.1 - - - - E 39 - 21 - - 1020.9 -
23/06:00pm 22.0 - - - - E 41 48 22 26 1020.6 - -
23/05:30pm 22.0 - - - - E 43 50 23 27 1020.2 - -
23/05:26pm 21.9 - - - - E 41 - 22 - - 1020.4 -
23/05:00pm 22.0 - - - - E 43 48 23 26 1020.1 - -
23/04:30pm 22.1 - - - - E 43 50 23 27 1020.0 - -
23/04:26pm 22.0 - - - - E 44 - 24 - - 1020.1 -
23/04:00pm 22.2 - - - - E 39 46 21 25 1020.1 - -
23/03:30pm 22.3 - - - - E 41 46 22 25 1020.1 - -
23/03:26pm 22.4 - - - - E 41 - 22 - - 1020.2 -
23/03:00pm 22.5 - - - - E 41 48 22 26 1020.0 - -
23/02:30pm 22.7 - - - - E 41 46 22 25 1020.0 - -
23/02:26pm 22.5 - - - - E 39 - 21 - - 1020.1 -
23/02:00pm 22.5 - - - - E 41 46 22 25 1020.2 - -
23/01:30pm 22.5 - - - - E 35 46 19 25 1020.4 - -
23/01:26pm 22.5 - - - - E 35 - 19 - - 1020.5 -
23/01:00pm 22.5 - - - - E 37 43 20 23 1020.6 - -
23/12:30pm 22.6 - - - - E 39 44 21 24 1020.8 - -
23/12:26pm 22.4 - - - - E 37 - 20 - - 1020.9 -
23/12:00pm 22.6 - - - - E 39 44 21 24 1021.1 - -
23/11:30am 22.6 - - - - E 37 46 20 25 1021.4 - -
23/11:26am 22.4 - - - - E 41 - 22 - - 1021.5 -
23/11:00am 22.4 - - - - E 41 46 22 25 1021.6 - -
23/10:30am 22.4 - - - - E 39 46 21 25 1022.0 - -
23/10:26am 22.4 - - - - E 39 - 21 - - 1022.1 -
23/10:00am 22.3 - - - - E 43 48 23 26 1022.1 - -
23/09:30am 22.5 - - - - E 41 48 22 26 1022.2 - -
23/09:26am 22.3 - - - - E 41 - 22 - - 1022.3 -
23/09:00am 22.3 - - - - E 43 48 23 26 1022.2 - -
23/08:30am 22.4 - - - - E 43 48 23 26 1022.1 - -
23/08:26am 22.3 - - - - E 41 - 22 - - 1022.2 -
23/08:00am 22.3 - - - - E 43 48 23 26 1021.9 - -
23/07:30am 22.3 - - - - E 41 44 22 24 1021.7 - -
23/07:26am 22.2 - - - - E 41 - 22 - - 1021.7 -
23/07:00am 22.1 - - - - E 43 50 23 27 1021.2 - -
23/06:30am 21.9 - - - - E 39 48 21 26 1020.7 - -
23/06:26am 21.7 - - - - E 35 - 19 - - 1020.9 -
23/06:00am 21.7 - - - - E 41 48 22 26 1020.5 - -
23/05:30am 21.5 - - - - E 41 50 22 27 1020.1 - -
23/05:26am 21.7 - - - - E 39 - 21 - - 1020.1 -
23/05:00am 21.1 - - - - E 39 48 21 26 1019.9 - -
23/04:30am 21.5 - - - - ESE 39 46 21 25 1019.8 - -
23/04:26am 21.4 - - - - E 39 - 21 - - 1019.9 -
23/04:00am 21.3 - - - - E 35 43 19 23 1019.6 - -
23/03:30am 21.9 - - - - E 39 44 21 24 1019.3 - -
23/03:26am 21.7 - - - - E 39 - 21 - - 1019.4 -
23/03:00am 21.8 - - - - E 41 46 22 25 1019.3 - -
23/02:30am 22.0 - - - - E 41 46 22 25 1019.4 - -
23/02:26am 21.9 - - - - E 41 - 22 - - 1019.5 -
23/02:00am 21.8 - - - - E 41 46 22 25 1019.5 - -
23/01:30am 21.8 - - - - E 43 48 23 26 1019.7 - -
23/01:26am 21.9 - - - - E 43 - 23 - - 1019.8 -
23/01:00am 21.8 - - - - E 43 50 23 27 1019.8 - -
23/12:30am 21.9 - - - - E 46 54 25 29 1020.0 - -
23/12:26am 21.8 - - - - E 46 - 25 - - 1020.1 -
23/12:00am 21.3 - - - - E 44 52 24 28 1020.4 - -
 
Date/Time
EST
Temp
°C
App
Temp
°C
Dew
Point
Rel
Hum
%
Delta-T
°C
Wind Press
QNH
hPa
Press
MSL
hPa
Rain
since 9 am
mm
Dir
 
Spd
km/h
Gust
km/h
Spd
kts
Gust
kts
22/11:30pm 21.5 - - - - E 43 48 23 26 1020.6 - -
22/11:26pm 21.6 - - - - E 44 - 24 - - 1020.7 -
22/11:00pm 21.5 - - - - E 41 50 22 27 1020.7 - -
22/10:30pm 21.4 - - - - E 48 54 26 29 1021.2 - -
22/10:26pm 21.7 - - - - E 46 - 25 - - 1021.3 -
22/10:00pm 21.6 - - - - E 50 59 27 32 1021.1 - -
22/09:46pm 20.8 - - - - E 44 63 24 34 1021.2 - -
22/09:30pm 21.9 - - - - E 44 50 24 27 1021.2 - -
22/09:26pm 21.6 - - - - E 44 - 24 - - 1021.3 -
22/09:00pm 21.5 - - - - E 52 59 28 32 1021.2 - -
22/08:30pm 21.0 - - - - E 54 61 29 33 1021.2 - -
22/08:26pm 21.2 - - - - E 50 - 27 - - 1021.3 -
22/08:00pm 21.3 - - - - E 52 63 28 34 1020.9 - -
22/07:30pm 22.0 - - - - E 50 59 27 32 1020.6 - -
22/07:26pm 21.7 - - - - E 52 - 28 - - 1020.7 -
22/07:00pm 21.3 - - - - E 54 61 29 33 1020.3 - -
22/06:30pm 21.9 - - - - E 50 61 27 33 1020.1 - -
22/06:26pm 21.7 - - - - E 50 - 27 - - 1020.0 -
22/06:00pm 20.5 - - - - E 44 54 24 29 1019.9 - -
22/05:30pm 21.0 - - - - E 56 63 30 34 1019.5 - -
22/05:26pm 20.9 - - - - E 56 - 30 - - 1019.5 -
22/05:00pm 21.0 - - - - E 52 61 28 33 1019.0 - -
22/04:30pm 19.1 - - - - E 50 57 27 31 1018.6 - -
22/04:26pm 18.6 - - - - E 54 - 29 - - 1018.6 -
22/04:19pm 18.6 - - - - ENE 56 63 30 34 1018.4 - -
22/04:00pm 21.9 - - - - E 46 57 25 31 1018.3 - -
22/03:30pm 22.1 - - - - E 46 54 25 29 1018.1 - -
22/03:26pm 22.0 - - - - E 46 - 25 - - 1018.2 -
22/03:00pm 22.2 - - - - E 43 50 23 27 1018.2 - -
22/02:30pm 22.1 - - - - E 46 52 25 28 1018.0 - -
22/02:26pm 22.2 - - - - E 44 - 24 - - 1018.2 -
22/02:00pm 22.2 - - - - E 43 50 23 27 1018.2 - -
22/01:30pm 22.2 - - - - E 44 54 24 29 1018.4 - -
22/01:26pm 22.3 - - - - E 44 - 24 - - 1018.6 -
22/01:00pm 22.0 - - - - E 46 54 25 29 1019.1 - -
22/12:30pm 22.1 - - - - E 43 48 23 26 1019.8 - -
22/12:26pm 22.1 - - - - E 43 - 23 - - 1019.9 -
22/12:00pm 22.3 - - - - E 41 48 22 26 1020.1 - -
22/11:30am 22.2 - - - - E 41 46 22 25 1020.4 - -
22/11:26am 22.2 - - - - E 41 - 22 - - 1020.6 -
22/11:00am 22.2 - - - - E 44 52 24 28 1020.5 - -
22/10:30am 22.3 - - - - E 46 54 25 29 1020.5 - -
22/10:26am 22.2 - - - - E 46 - 25 - - 1020.6 -
22/10:00am 22.1 - - - - E 46 52 25 28 1020.8 - -
22/09:30am 22.2 - - - - E 46 52 25 28 1020.7 - -
22/09:26am 22.0 - - - - E 44 - 24 - - 1020.7 -
22/09:00am 21.9 - - - - E 44 54 24 29 1020.6 - -
22/08:30am 22.0 - - - - E 46 56 25 30 1020.6 - -
22/08:26am 22.0 - - - - E 46 - 25 - - 1020.6 -
22/08:00am 21.9 - - - - E 43 50 23 27 1020.4 - -
22/07:30am 22.0 - - - - ENE 43 48 23 26 1020.4 - -
22/07:26am 22.0 - - - - E 41 - 22 - - 1020.4 -
22/07:00am 21.9 - - - - E 44 52 24 28 1019.8 - -
22/06:30am 21.8 - - - - E 44 54 24 29 1019.5 - -
22/06:26am 21.8 - - - - E 46 - 25 - - 1019.6 -
22/06:00am 21.8 - - - - E 46 52 25 28 1019.0 - -
22/05:30am 21.8 - - - - E 43 48 23 26 1018.8 - -
22/05:26am 21.9 - - - - ENE 44 - 24 - - 1018.9 -
22/05:00am 21.9 - - - - E 44 52 24 28 1018.5 - -
22/04:30am 21.7 - - - - E 43 48 23 26 1018.4 - -
22/04:26am 21.7 - - - - E 44 - 24 - - 1018.5 -
22/04:00am 21.7 - - - - E 43 48 23 26 1018.5 - -
22/03:30am 21.9 - - - - E 41 50 22 27 1018.7 - -
22/03:26am 21.8 - - - - E 43 - 23 - - 1018.8 -
22/03:00am 21.8 - - - - E 44 54 24 29 1018.5 - -
22/02:30am 21.6 - - - - E 46 52 25 28 1018.5 - -
22/02:26am 21.7 - - - - E 46 - 25 - - 1018.8 -
22/02:00am 21.8 - - - - E 44 52 24 28 1019.2 - -
22/01:30am 21.9 - - - - E 44 52 24 28 1019.5 - -
22/01:26am 21.9 - - - - E 46 - 25 - - 1019.7 -
22/01:00am 21.8 - - - - E 43 50 23 27 1019.9 - -
22/12:30am 21.8 - - - - E 44 50 24 27 1020.2 - -
22/12:26am 21.8 - - - - E 43 - 23 - - 1020.3 -
22/12:00am 21.8 - - - - E 44 54 24 29 1020.6 - -
 
Date/Time
EST
Temp
°C
App
Temp
°C
Dew
Point
Rel
Hum
%
Delta-T
°C
Wind Press
QNH
hPa
Press
MSL
hPa
Rain
since 9 am
mm
Dir
 
Spd
km/h
Gust
km/h
Spd
kts
Gust
kts
21/11:30pm 21.9 - - - - E 46 52 25 28 1020.9 - -
21/11:26pm 21.8 - - - - E 44 - 24 - - 1021.1 -
21/11:00pm 21.9 - - - - E 48 56 26 30 1021.1 - -
21/10:30pm 21.9 - - - - E 48 56 26 30 1020.9 - -
21/10:26pm 21.9 - - - - E 46 - 25 - - 1021.0 -
21/10:00pm 22.1 - - - - E 44 50 24 27 1021.2 - -
21/09:30pm 22.1 - - - - E 35 41 19 22 1021.1 - -
21/09:26pm 22.1 - - - - E 35 - 19 - - 1021.2 -
21/09:00pm 22.0 - - - - E 37 43 20 23 1021.0 - -
21/08:30pm 22.1 - - - - E 37 43 20 23 1020.8 - -
21/08:26pm 22.1 - - - - E 37 - 20 - - 1021.0 -
21/08:00pm 22.0 - - - - E 39 46 21 25 1020.8 - -
21/07:30pm 22.0 - - - - E 43 48 23 26 1020.7 - -
21/07:26pm 22.0 - - - - E 44 - 24 - - 1020.8 -
21/07:00pm 22.0 - - - - E 44 52 24 28 1020.3 - -
21/06:30pm 22.0 - - - - E 41 46 22 25 1020.2 - -
21/06:26pm 22.0 - - - - E 41 - 22 - - 1020.3 -
21/06:00pm 22.0 - - - - E 41 46 22 25 1019.9 - -
21/05:30pm 22.0 - - - - E 43 48 23 26 1019.7 - -
21/05:26pm 22.0 - - - - E 43 - 23 - - 1019.7 -
21/05:00pm 22.0 - - - - E 43 48 23 26 1019.1 - -
21/04:30pm 22.2 - - - - E 43 50 23 27 1019.2 - -
21/04:26pm 22.2 - - - - E 43 - 23 - - 1019.2 -
21/04:00pm 22.1 - - - - E 43 50 23 27 1018.9 - -
21/03:30pm 22.1 - - - - E 43 48 23 26 1018.9 - -
21/03:26pm 22.1 - - - - E 43 - 23 - - 1019.0 -
21/03:00pm 22.1 - - - - E 41 48 22 26 1018.8 - -
21/02:30pm 22.2 - - - - E 43 48 23 26 1018.9 - -
21/02:26pm 22.3 - - - - E 43 - 23 - - 1019.1 -

Other Formats:

Comma delimited format used in spreadsheet applications
http://www.bom.gov.au/fwo/IDQ60801/IDQ60801.94379.axf

JavaScript Object Notation format (JSON) in row-major order
http://www.bom.gov.au/fwo/IDQ60801/IDQ60801.94379.json